sensor_id;sensor_type;location;lat;lon;timestamp;P1;durP1;ratioP1;P2;durP2;ratioP2
73168;SDS011;61379;59.732;30.468;2023-07-28T00:00:08;8.15;;;7.45;;
73168;SDS011;61379;59.732;30.468;2023-07-28T00:02:36;8.02;;;7.32;;
73168;SDS011;61379;59.732;30.468;2023-07-28T00:05:05;8.18;;;7.40;;
73168;SDS011;61379;59.732;30.468;2023-07-28T00:07:31;7.97;;;7.43;;
73168;SDS011;61379;59.732;30.468;2023-07-28T00:10:01;8.07;;;7.40;;
73168;SDS011;61379;59.732;30.468;2023-07-28T00:12:31;8.20;;;7.45;;
73168;SDS011;61379;59.732;30.468;2023-07-28T00:14:58;9.88;;;9.00;;
73168;SDS011;61379;59.732;30.468;2023-07-28T00:17:25;8.25;;;7.50;;
73168;SDS011;61379;59.732;30.468;2023-07-28T00:19:52;8.90;;;7.47;;
73168;SDS011;61379;59.732;30.468;2023-07-28T00:22:20;9.15;;;8.35;;
73168;SDS011;61379;59.732;30.468;2023-07-28T00:24:47;8.70;;;7.82;;
73168;SDS011;61379;59.732;30.468;2023-07-28T00:27:14;8.82;;;8.13;;
73168;SDS011;61379;59.732;30.468;2023-07-28T00:29:41;7.93;;;7.30;;
73168;SDS011;61379;59.732;30.468;2023-07-28T00:32:08;8.05;;;7.35;;
73168;SDS011;61379;59.732;30.468;2023-07-28T00:34:34;7.97;;;7.32;;
73168;SDS011;61379;59.732;30.468;2023-07-28T00:37:01;7.80;;;7.10;;
73168;SDS011;61379;59.732;30.468;2023-07-28T00:39:29;7.80;;;7.20;;
73168;SDS011;61379;59.732;30.468;2023-07-28T00:41:56;7.65;;;6.95;;
73168;SDS011;61379;59.732;30.468;2023-07-28T00:44:23;8.10;;;7.45;;
73168;SDS011;61379;59.732;30.468;2023-07-28T00:46:50;7.55;;;6.85;;
73168;SDS011;61379;59.732;30.468;2023-07-28T00:49:17;7.82;;;7.05;;
73168;SDS011;61379;59.732;30.468;2023-07-28T00:51:43;7.95;;;7.15;;
73168;SDS011;61379;59.732;30.468;2023-07-28T00:54:10;8.48;;;6.68;;
73168;SDS011;61379;59.732;30.468;2023-07-28T00:56:40;7.65;;;6.88;;
73168;SDS011;61379;59.732;30.468;2023-07-28T00:59:06;8.35;;;7.40;;
73168;SDS011;61379;59.732;30.468;2023-07-28T01:01:33;8.52;;;7.72;;
73168;SDS011;61379;59.732;30.468;2023-07-28T01:04:00;6.97;;;6.38;;
73168;SDS011;61379;59.732;30.468;2023-07-28T01:06:29;7.45;;;6.75;;
73168;SDS011;61379;59.732;30.468;2023-07-28T01:09:02;6.72;;;6.00;;
73168;SDS011;61379;59.732;30.468;2023-07-28T01:11:30;6.65;;;6.15;;
73168;SDS011;61379;59.732;30.468;2023-07-28T01:13:58;6.75;;;5.97;;
73168;SDS011;61379;59.732;30.468;2023-07-28T01:16:24;7.55;;;5.88;;
73168;SDS011;61379;59.732;30.468;2023-07-28T01:18:51;6.60;;;5.93;;
73168;SDS011;61379;59.732;30.468;2023-07-28T01:21:20;6.38;;;5.78;;
73168;SDS011;61379;59.732;30.468;2023-07-28T01:23:50;6.38;;;5.88;;
73168;SDS011;61379;59.732;30.468;2023-07-28T01:26:26;7.80;;;5.85;;
73168;SDS011;61379;59.732;30.468;2023-07-28T01:28:52;6.72;;;6.13;;
73168;SDS011;61379;59.732;30.468;2023-07-28T01:31:19;7.30;;;6.57;;
73168;SDS011;61379;59.732;30.468;2023-07-28T01:33:46;6.18;;;5.53;;
73168;SDS011;61379;59.732;30.468;2023-07-28T01:36:13;7.38;;;5.43;;
73168;SDS011;61379;59.732;30.468;2023-07-28T01:38:40;7.97;;;7.32;;
73168;SDS011;61379;59.732;30.468;2023-07-28T01:41:07;7.55;;;6.70;;
73168;SDS011;61379;59.732;30.468;2023-07-28T01:43:35;6.65;;;6.05;;
73168;SDS011;61379;59.732;30.468;2023-07-28T01:46:02;6.63;;;6.03;;
73168;SDS011;61379;59.732;30.468;2023-07-28T01:48:28;8.63;;;7.88;;
73168;SDS011;61379;59.732;30.468;2023-07-28T01:50:55;7.55;;;7.03;;
73168;SDS011;61379;59.732;30.468;2023-07-28T01:53:22;7.72;;;7.13;;
73168;SDS011;61379;59.732;30.468;2023-07-28T01:55:48;9.30;;;7.57;;
73168;SDS011;61379;59.732;30.468;2023-07-28T01:58:15;8.50;;;7.70;;
73168;SDS011;61379;59.732;30.468;2023-07-28T02:00:43;7.97;;;7.30;;
73168;SDS011;61379;59.732;30.468;2023-07-28T02:03:11;8.25;;;7.45;;
73168;SDS011;61379;59.732;30.468;2023-07-28T02:05:38;9.10;;;7.53;;
73168;SDS011;61379;59.732;30.468;2023-07-28T02:08:05;8.95;;;8.20;;
73168;SDS011;61379;59.732;30.468;2023-07-28T02:10:31;9.77;;;9.07;;
73168;SDS011;61379;59.732;30.468;2023-07-28T02:12:59;9.63;;;8.85;;
73168;SDS011;61379;59.732;30.468;2023-07-28T02:15:25;8.70;;;8.00;;
73168;SDS011;61379;59.732;30.468;2023-07-28T02:17:54;8.82;;;7.85;;
73168;SDS011;61379;59.732;30.468;2023-07-28T02:20:27;10.07;;;9.18;;
73168;SDS011;61379;59.732;30.468;2023-07-28T02:22:54;9.68;;;8.88;;
73168;SDS011;61379;59.732;30.468;2023-07-28T02:25:21;10.10;;;9.20;;
73168;SDS011;61379;59.732;30.468;2023-07-28T02:27:48;10.35;;;8.80;;
73168;SDS011;61379;59.732;30.468;2023-07-28T02:30:15;10.57;;;8.23;;
73168;SDS011;61379;59.732;30.468;2023-07-28T02:32:42;10.70;;;9.60;;
73168;SDS011;61379;59.732;30.468;2023-07-28T02:35:10;9.98;;;9.07;;
73168;SDS011;61379;59.732;30.468;2023-07-28T02:37:37;9.07;;;7.38;;
73168;SDS011;61379;59.732;30.468;2023-07-28T02:40:04;9.18;;;8.30;;
73168;SDS011;61379;59.732;30.468;2023-07-28T02:42:31;10.15;;;8.02;;
73168;SDS011;61379;59.732;30.468;2023-07-28T02:44:59;10.02;;;8.70;;
73168;SDS011;61379;59.732;30.468;2023-07-28T02:47:26;10.65;;;9.57;;
73168;SDS011;61379;59.732;30.468;2023-07-28T02:49:53;10.38;;;9.38;;
73168;SDS011;61379;59.732;30.468;2023-07-28T02:52:21;10.35;;;8.52;;
73168;SDS011;61379;59.732;30.468;2023-07-28T02:54:48;11.27;;;10.18;;
73168;SDS011;61379;59.732;30.468;2023-07-28T02:57:15;10.90;;;9.82;;
73168;SDS011;61379;59.732;30.468;2023-07-28T02:59:42;10.75;;;9.80;;
73168;SDS011;61379;59.732;30.468;2023-07-28T03:02:09;12.52;;;10.20;;
73168;SDS011;61379;59.732;30.468;2023-07-28T03:04:35;10.27;;;9.25;;
73168;SDS011;61379;59.732;30.468;2023-07-28T03:07:02;10.23;;;9.23;;
73168;SDS011;61379;59.732;30.468;2023-07-28T03:09:30;10.82;;;9.55;;
73168;SDS011;61379;59.732;30.468;2023-07-28T03:11:57;12.50;;;9.00;;
73168;SDS011;61379;59.732;30.468;2023-07-28T03:14:24;10.23;;;9.05;;
73168;SDS011;61379;59.732;30.468;2023-07-28T03:16:51;9.95;;;8.95;;
73168;SDS011;61379;59.732;30.468;2023-07-28T03:19:18;9.98;;;8.52;;
73168;SDS011;61379;59.732;30.468;2023-07-28T03:21:45;11.90;;;9.63;;
73168;SDS011;61379;59.732;30.468;2023-07-28T03:24:11;11.30;;;9.95;;
73168;SDS011;61379;59.732;30.468;2023-07-28T03:26:40;12.85;;;10.43;;
73168;SDS011;61379;59.732;30.468;2023-07-28T03:29:06;10.88;;;9.88;;
73168;SDS011;61379;59.732;30.468;2023-07-28T03:31:33;12.15;;;10.93;;
73168;SDS011;61379;59.732;30.468;2023-07-28T03:34:01;10.32;;;9.30;;
73168;SDS011;61379;59.732;30.468;2023-07-28T03:36:27;11.77;;;10.68;;
73168;SDS011;61379;59.732;30.468;2023-07-28T03:38:54;11.90;;;10.75;;
73168;SDS011;61379;59.732;30.468;2023-07-28T03:41:21;12.35;;;10.00;;
73168;SDS011;61379;59.732;30.468;2023-07-28T03:43:49;12.35;;;11.15;;
73168;SDS011;61379;59.732;30.468;2023-07-28T03:46:16;10.95;;;9.95;;
73168;SDS011;61379;59.732;30.468;2023-07-28T03:48:43;11.60;;;10.35;;
73168;SDS011;61379;59.732;30.468;2023-07-28T03:51:09;11.82;;;10.73;;
73168;SDS011;61379;59.732;30.468;2023-07-28T03:53:36;11.57;;;10.25;;
73168;SDS011;61379;59.732;30.468;2023-07-28T03:56:03;11.98;;;10.73;;
73168;SDS011;61379;59.732;30.468;2023-07-28T03:58:30;15.18;;;12.63;;
73168;SDS011;61379;59.732;30.468;2023-07-28T04:00:58;13.38;;;12.13;;
73168;SDS011;61379;59.732;30.468;2023-07-28T04:03:25;16.80;;;10.95;;
73168;SDS011;61379;59.732;30.468;2023-07-28T04:05:52;13.85;;;11.93;;
73168;SDS011;61379;59.732;30.468;2023-07-28T04:08:18;11.60;;;10.70;;
73168;SDS011;61379;59.732;30.468;2023-07-28T04:10:45;12.75;;;11.48;;
73168;SDS011;61379;59.732;30.468;2023-07-28T04:13:12;11.30;;;10.25;;
73168;SDS011;61379;59.732;30.468;2023-07-28T04:15:39;11.38;;;10.05;;
73168;SDS011;61379;59.732;30.468;2023-07-28T04:18:07;12.77;;;11.55;;
73168;SDS011;61379;59.732;30.468;2023-07-28T04:20:34;10.52;;;9.73;;
73168;SDS011;61379;59.732;30.468;2023-07-28T04:23:00;10.90;;;9.85;;
73168;SDS011;61379;59.732;30.468;2023-07-28T04:25:27;11.45;;;10.35;;
73168;SDS011;61379;59.732;30.468;2023-07-28T04:27:54;12.75;;;10.27;;
73168;SDS011;61379;59.732;30.468;2023-07-28T04:30:21;11.23;;;10.05;;
73168;SDS011;61379;59.732;30.468;2023-07-28T04:32:48;10.55;;;9.60;;
73168;SDS011;61379;59.732;30.468;2023-07-28T04:35:16;11.43;;;10.32;;
73168;SDS011;61379;59.732;30.468;2023-07-28T04:37:43;13.50;;;9.95;;
73168;SDS011;61379;59.732;30.468;2023-07-28T04:40:10;12.90;;;10.43;;
73168;SDS011;61379;59.732;30.468;2023-07-28T04:42:37;10.80;;;9.85;;
73168;SDS011;61379;59.732;30.468;2023-07-28T04:45:04;11.25;;;10.25;;
73168;SDS011;61379;59.732;30.468;2023-07-28T04:47:33;12.57;;;11.48;;
73168;SDS011;61379;59.732;30.468;2023-07-28T04:50:00;12.20;;;11.20;;
73168;SDS011;61379;59.732;30.468;2023-07-28T04:52:29;12.90;;;11.60;;
73168;SDS011;61379;59.732;30.468;2023-07-28T04:54:56;13.35;;;12.07;;
73168;SDS011;61379;59.732;30.468;2023-07-28T04:57:23;14.10;;;12.80;;
73168;SDS011;61379;59.732;30.468;2023-07-28T04:59:50;14.65;;;13.20;;
73168;SDS011;61379;59.732;30.468;2023-07-28T05:02:17;14.23;;;12.52;;
73168;SDS011;61379;59.732;30.468;2023-07-28T05:04:44;14.65;;;13.27;;
73168;SDS011;61379;59.732;30.468;2023-07-28T05:07:10;15.00;;;13.80;;
73168;SDS011;61379;59.732;30.468;2023-07-28T05:09:38;13.82;;;12.52;;
73168;SDS011;61379;59.732;30.468;2023-07-28T05:12:05;12.88;;;11.60;;
73168;SDS011;61379;59.732;30.468;2023-07-28T05:14:32;13.18;;;12.05;;
73168;SDS011;61379;59.732;30.468;2023-07-28T05:16:59;14.57;;;13.27;;
73168;SDS011;61379;59.732;30.468;2023-07-28T05:19:25;14.82;;;13.63;;
73168;SDS011;61379;59.732;30.468;2023-07-28T05:21:52;14.38;;;13.05;;
73168;SDS011;61379;59.732;30.468;2023-07-28T05:24:19;14.73;;;13.20;;
73168;SDS011;61379;59.732;30.468;2023-07-28T05:26:47;13.18;;;11.95;;
73168;SDS011;61379;59.732;30.468;2023-07-28T05:29:14;15.88;;;14.27;;
73168;SDS011;61379;59.732;30.468;2023-07-28T05:31:41;18.77;;;16.45;;
73168;SDS011;61379;59.732;30.468;2023-07-28T05:34:07;17.52;;;13.85;;
73168;SDS011;61379;59.732;30.468;2023-07-28T05:36:34;14.52;;;12.98;;
73168;SDS011;61379;59.732;30.468;2023-07-28T05:39:01;13.50;;;12.43;;
73168;SDS011;61379;59.732;30.468;2023-07-28T05:41:28;12.90;;;11.80;;
73168;SDS011;61379;59.732;30.468;2023-07-28T05:43:56;14.43;;;13.32;;
73168;SDS011;61379;59.732;30.468;2023-07-28T05:46:22;15.98;;;13.40;;
73168;SDS011;61379;59.732;30.468;2023-07-28T05:48:49;12.57;;;11.60;;
73168;SDS011;61379;59.732;30.468;2023-07-28T05:51:16;12.38;;;11.23;;
73168;SDS011;61379;59.732;30.468;2023-07-28T05:53:43;12.65;;;11.50;;
73168;SDS011;61379;59.732;30.468;2023-07-28T05:56:10;12.98;;;11.20;;
73168;SDS011;61379;59.732;30.468;2023-07-28T05:58:36;14.85;;;12.38;;
73168;SDS011;61379;59.732;30.468;2023-07-28T06:01:04;18.48;;;12.38;;
73168;SDS011;61379;59.732;30.468;2023-07-28T06:03:31;17.30;;;13.15;;
73168;SDS011;61379;59.732;30.468;2023-07-28T06:05:58;14.02;;;12.73;;
73168;SDS011;61379;59.732;30.468;2023-07-28T06:08:25;15.25;;;13.75;;
73168;SDS011;61379;59.732;30.468;2023-07-28T06:10:52;17.20;;;12.43;;
73168;SDS011;61379;59.732;30.468;2023-07-28T06:13:18;22.25;;;13.98;;
73168;SDS011;61379;59.732;30.468;2023-07-28T06:15:45;15.77;;;13.13;;
73168;SDS011;61379;59.732;30.468;2023-07-28T06:18:13;16.48;;;13.48;;
73168;SDS011;61379;59.732;30.468;2023-07-28T06:20:42;20.13;;;15.25;;
73168;SDS011;61379;59.732;30.468;2023-07-28T06:23:08;17.83;;;13.65;;
73168;SDS011;61379;59.732;30.468;2023-07-28T06:25:35;20.10;;;14.48;;
73168;SDS011;61379;59.732;30.468;2023-07-28T06:28:03;18.73;;;14.77;;
73168;SDS011;61379;59.732;30.468;2023-07-28T06:30:30;21.77;;;14.65;;
73168;SDS011;61379;59.732;30.468;2023-07-28T06:32:57;17.48;;;13.75;;
73168;SDS011;61379;59.732;30.468;2023-07-28T06:35:25;21.42;;;15.43;;
73168;SDS011;61379;59.732;30.468;2023-07-28T06:37:52;18.90;;;13.85;;
73168;SDS011;61379;59.732;30.468;2023-07-28T06:40:19;15.27;;;13.75;;
73168;SDS011;61379;59.732;30.468;2023-07-28T06:42:46;15.35;;;13.77;;
73168;SDS011;61379;59.732;30.468;2023-07-28T06:45:13;13.25;;;11.98;;
73168;SDS011;61379;59.732;30.468;2023-07-28T06:47:40;12.80;;;11.52;;
73168;SDS011;61379;59.732;30.468;2023-07-28T06:50:07;12.93;;;11.73;;
73168;SDS011;61379;59.732;30.468;2023-07-28T06:52:35;11.48;;;10.52;;
73168;SDS011;61379;59.732;30.468;2023-07-28T06:55:02;11.73;;;10.73;;
73168;SDS011;61379;59.732;30.468;2023-07-28T06:57:29;11.18;;;10.07;;
73168;SDS011;61379;59.732;30.468;2023-07-28T06:59:56;11.25;;;10.35;;
73168;SDS011;61379;59.732;30.468;2023-07-28T07:02:25;11.13;;;10.20;;
73168;SDS011;61379;59.732;30.468;2023-07-28T07:04:52;10.75;;;10.00;;
73168;SDS011;61379;59.732;30.468;2023-07-28T07:07:18;11.98;;;11.07;;
73168;SDS011;61379;59.732;30.468;2023-07-28T07:09:46;11.25;;;10.25;;
73168;SDS011;61379;59.732;30.468;2023-07-28T07:12:13;9.85;;;9.05;;
73168;SDS011;61379;59.732;30.468;2023-07-28T07:14:41;11.10;;;10.02;;
73168;SDS011;61379;59.732;30.468;2023-07-28T07:17:07;11.75;;;10.70;;
73168;SDS011;61379;59.732;30.468;2023-07-28T07:19:34;10.98;;;9.88;;
73168;SDS011;61379;59.732;30.468;2023-07-28T07:22:01;11.07;;;10.27;;
73168;SDS011;61379;59.732;30.468;2023-07-28T07:24:28;11.63;;;10.68;;
73168;SDS011;61379;59.732;30.468;2023-07-28T07:26:56;11.23;;;10.23;;
73168;SDS011;61379;59.732;30.468;2023-07-28T07:29:23;11.57;;;10.70;;
73168;SDS011;61379;59.732;30.468;2023-07-28T07:31:50;12.68;;;11.57;;
73168;SDS011;61379;59.732;30.468;2023-07-28T07:34:21;10.77;;;9.85;;
73168;SDS011;61379;59.732;30.468;2023-07-28T07:36:48;10.40;;;9.52;;
73168;SDS011;61379;59.732;30.468;2023-07-28T07:39:15;11.13;;;10.38;;
73168;SDS011;61379;59.732;30.468;2023-07-28T07:41:41;10.52;;;9.65;;
73168;SDS011;61379;59.732;30.468;2023-07-28T07:44:10;10.80;;;9.82;;
73168;SDS011;61379;59.732;30.468;2023-07-28T07:46:37;10.57;;;9.55;;
73168;SDS011;61379;59.732;30.468;2023-07-28T07:49:03;10.38;;;9.57;;
73168;SDS011;61379;59.732;30.468;2023-07-28T07:51:31;11.48;;;10.48;;
73168;SDS011;61379;59.732;30.468;2023-07-28T07:53:59;10.65;;;9.77;;
73168;SDS011;61379;59.732;30.468;2023-07-28T07:56:26;10.48;;;9.40;;
73168;SDS011;61379;59.732;30.468;2023-07-28T07:58:53;9.23;;;8.48;;
73168;SDS011;61379;59.732;30.468;2023-07-28T08:01:21;9.65;;;8.95;;
73168;SDS011;61379;59.732;30.468;2023-07-28T08:03:48;9.40;;;8.60;;
73168;SDS011;61379;59.732;30.468;2023-07-28T08:06:15;9.93;;;9.23;;
73168;SDS011;61379;59.732;30.468;2023-07-28T08:08:41;10.32;;;9.55;;
73168;SDS011;61379;59.732;30.468;2023-07-28T08:11:08;10.32;;;9.52;;
73168;SDS011;61379;59.732;30.468;2023-07-28T08:13:35;10.25;;;9.35;;
73168;SDS011;61379;59.732;30.468;2023-07-28T08:16:02;11.73;;;10.82;;
73168;SDS011;61379;59.732;30.468;2023-07-28T08:18:30;9.93;;;9.23;;
73168;SDS011;61379;59.732;30.468;2023-07-28T08:20:56;11.18;;;9.90;;
73168;SDS011;61379;59.732;30.468;2023-07-28T08:23:24;10.27;;;9.57;;
73168;SDS011;61379;59.732;30.468;2023-07-28T08:25:50;9.38;;;8.68;;
73168;SDS011;61379;59.732;30.468;2023-07-28T08:28:17;9.52;;;8.93;;
73168;SDS011;61379;59.732;30.468;2023-07-28T08:30:44;10.10;;;9.20;;
73168;SDS011;61379;59.732;30.468;2023-07-28T08:33:12;11.02;;;10.10;;
73168;SDS011;61379;59.732;30.468;2023-07-28T08:35:40;10.55;;;9.73;;
73168;SDS011;61379;59.732;30.468;2023-07-28T08:38:07;9.18;;;8.57;;
73168;SDS011;61379;59.732;30.468;2023-07-28T08:40:33;11.25;;;10.18;;
73168;SDS011;61379;59.732;30.468;2023-07-28T08:43:00;10.13;;;9.32;;
73168;SDS011;61379;59.732;30.468;2023-07-28T08:45:27;11.48;;;10.63;;
73168;SDS011;61379;59.732;30.468;2023-07-28T08:47:54;10.13;;;9.43;;
73168;SDS011;61379;59.732;30.468;2023-07-28T08:50:21;10.82;;;9.93;;
73168;SDS011;61379;59.732;30.468;2023-07-28T08:52:49;11.27;;;10.57;;
73168;SDS011;61379;59.732;30.468;2023-07-28T08:55:17;10.68;;;9.95;;
73168;SDS011;61379;59.732;30.468;2023-07-28T08:57:43;10.45;;;9.75;;
73168;SDS011;61379;59.732;30.468;2023-07-28T09:00:10;11.15;;;10.48;;
73168;SDS011;61379;59.732;30.468;2023-07-28T09:02:39;10.20;;;9.50;;
73168;SDS011;61379;59.732;30.468;2023-07-28T09:05:06;10.75;;;9.95;;
73168;SDS011;61379;59.732;30.468;2023-07-28T09:07:34;10.25;;;9.38;;
73168;SDS011;61379;59.732;30.468;2023-07-28T09:10:02;10.93;;;10.20;;
73168;SDS011;61379;59.732;30.468;2023-07-28T09:12:31;10.70;;;10.00;;
73168;SDS011;61379;59.732;30.468;2023-07-28T09:14:59;10.18;;;9.57;;
73168;SDS011;61379;59.732;30.468;2023-07-28T09:17:26;10.25;;;9.45;;
73168;SDS011;61379;59.732;30.468;2023-07-28T09:19:53;9.80;;;9.10;;
73168;SDS011;61379;59.732;30.468;2023-07-28T09:22:21;12.13;;;11.15;;
73168;SDS011;61379;59.732;30.468;2023-07-28T09:24:47;10.48;;;9.68;;
73168;SDS011;61379;59.732;30.468;2023-07-28T09:27:22;10.40;;;9.50;;
73168;SDS011;61379;59.732;30.468;2023-07-28T09:29:50;10.40;;;9.75;;
73168;SDS011;61379;59.732;30.468;2023-07-28T09:32:18;11.05;;;10.25;;
73168;SDS011;61379;59.732;30.468;2023-07-28T09:35:04;10.77;;;9.98;;
73168;SDS011;61379;59.732;30.468;2023-07-28T09:37:32;11.48;;;10.68;;
73168;SDS011;61379;59.732;30.468;2023-07-28T09:40:00;10.98;;;9.98;;
73168;SDS011;61379;59.732;30.468;2023-07-28T09:42:32;10.73;;;9.70;;
73168;SDS011;61379;59.732;30.468;2023-07-28T09:44:59;11.70;;;10.52;;
73168;SDS011;61379;59.732;30.468;2023-07-28T09:47:26;10.02;;;9.32;;
73168;SDS011;61379;59.732;30.468;2023-07-28T09:49:53;9.93;;;9.23;;
73168;SDS011;61379;59.732;30.468;2023-07-28T09:52:21;9.30;;;8.60;;
73168;SDS011;61379;59.732;30.468;2023-07-28T09:54:50;10.38;;;9.60;;
73168;SDS011;61379;59.732;30.468;2023-07-28T09:57:20;10.50;;;9.73;;
73168;SDS011;61379;59.732;30.468;2023-07-28T09:59:48;10.50;;;9.80;;
73168;SDS011;61379;59.732;30.468;2023-07-28T10:02:16;10.30;;;9.45;;
73168;SDS011;61379;59.732;30.468;2023-07-28T10:04:43;9.93;;;9.32;;
73168;SDS011;61379;59.732;30.468;2023-07-28T10:07:10;10.60;;;9.80;;
73168;SDS011;61379;59.732;30.468;2023-07-28T10:09:38;9.98;;;9.25;;
73168;SDS011;61379;59.732;30.468;2023-07-28T10:12:05;9.88;;;9.02;;
73168;SDS011;61379;59.732;30.468;2023-07-28T10:14:33;10.02;;;9.10;;
73168;SDS011;61379;59.732;30.468;2023-07-28T10:17:04;11.85;;;10.73;;
73168;SDS011;61379;59.732;30.468;2023-07-28T10:19:33;10.18;;;9.27;;
73168;SDS011;61379;59.732;30.468;2023-07-28T10:22:00;10.93;;;9.88;;
73168;SDS011;61379;59.732;30.468;2023-07-28T10:27:15;11.52;;;10.32;;
73168;SDS011;61379;59.732;30.468;2023-07-28T10:29:55;10.27;;;9.25;;
73168;SDS011;61379;59.732;30.468;2023-07-28T10:32:26;12.30;;;11.13;;
73168;SDS011;61379;59.732;30.468;2023-07-28T10:35:00;13.65;;;10.77;;
73168;SDS011;61379;59.732;30.468;2023-07-28T10:37:29;10.80;;;9.80;;
73168;SDS011;61379;59.732;30.468;2023-07-28T10:40:21;11.45;;;10.50;;
73168;SDS011;61379;59.732;30.468;2023-07-28T10:42:48;11.85;;;10.95;;
73168;SDS011;61379;59.732;30.468;2023-07-28T10:45:15;11.20;;;10.40;;
73168;SDS011;61379;59.732;30.468;2023-07-28T10:47:43;10.85;;;10.05;;
73168;SDS011;61379;59.732;30.468;2023-07-28T10:50:10;11.18;;;10.25;;
73168;SDS011;61379;59.732;30.468;2023-07-28T10:52:38;10.05;;;9.27;;
73168;SDS011;61379;59.732;30.468;2023-07-28T10:55:05;10.25;;;9.45;;
73168;SDS011;61379;59.732;30.468;2023-07-28T10:57:37;10.02;;;9.23;;
73168;SDS011;61379;59.732;30.468;2023-07-28T11:00:05;10.05;;;9.35;;
73168;SDS011;61379;59.732;30.468;2023-07-28T11:02:33;10.50;;;9.60;;
73168;SDS011;61379;59.732;30.468;2023-07-28T11:05:01;11.57;;;10.35;;
73168;SDS011;61379;59.732;30.468;2023-07-28T11:07:31;10.38;;;9.68;;
73168;SDS011;61379;59.732;30.468;2023-07-28T11:09:59;10.82;;;10.02;;
73168;SDS011;61379;59.732;30.468;2023-07-28T11:12:26;10.70;;;9.77;;
73168;SDS011;61379;59.732;30.468;2023-07-28T11:14:53;10.93;;;9.95;;
73168;SDS011;61379;59.732;30.468;2023-07-28T11:17:20;10.98;;;10.15;;
73168;SDS011;61379;59.732;30.468;2023-07-28T11:19:47;10.90;;;10.00;;
73168;SDS011;61379;59.732;30.468;2023-07-28T11:22:17;10.93;;;10.10;;
73168;SDS011;61379;59.732;30.468;2023-07-28T11:24:44;10.70;;;10.02;;
73168;SDS011;61379;59.732;30.468;2023-07-28T11:27:10;9.25;;;8.55;;
73168;SDS011;61379;59.732;30.468;2023-07-28T11:29:37;10.05;;;9.23;;
73168;SDS011;61379;59.732;30.468;2023-07-28T11:32:04;10.25;;;9.45;;
73168;SDS011;61379;59.732;30.468;2023-07-28T11:34:34;9.50;;;8.82;;
73168;SDS011;61379;59.732;30.468;2023-07-28T11:39:30;11.23;;;10.40;;
73168;SDS011;61379;59.732;30.468;2023-07-28T11:41:57;9.98;;;9.18;;
73168;SDS011;61379;59.732;30.468;2023-07-28T11:44:24;10.20;;;9.43;;
73168;SDS011;61379;59.732;30.468;2023-07-28T11:46:51;9.95;;;9.25;;
73168;SDS011;61379;59.732;30.468;2023-07-28T11:49:20;11.57;;;9.48;;
73168;SDS011;61379;59.732;30.468;2023-07-28T11:51:48;9.90;;;9.23;;
73168;SDS011;61379;59.732;30.468;2023-07-28T11:54:16;9.43;;;8.82;;
73168;SDS011;61379;59.732;30.468;2023-07-28T11:56:48;8.85;;;8.10;;
73168;SDS011;61379;59.732;30.468;2023-07-28T11:59:16;9.82;;;9.23;;
73168;SDS011;61379;59.732;30.468;2023-07-28T12:01:53;9.45;;;8.65;;
73168;SDS011;61379;59.732;30.468;2023-07-28T12:04:20;10.15;;;9.35;;
73168;SDS011;61379;59.732;30.468;2023-07-28T12:07:03;9.63;;;8.82;;
73168;SDS011;61379;59.732;30.468;2023-07-28T12:09:31;10.05;;;9.25;;
73168;SDS011;61379;59.732;30.468;2023-07-28T12:11:59;9.48;;;8.85;;
73168;SDS011;61379;59.732;30.468;2023-07-28T12:14:33;9.43;;;8.57;;
73168;SDS011;61379;59.732;30.468;2023-07-28T12:16:59;11.02;;;10.07;;
73168;SDS011;61379;59.732;30.468;2023-07-28T12:19:28;9.75;;;8.77;;
73168;SDS011;61379;59.732;30.468;2023-07-28T12:21:54;9.23;;;8.32;;
73168;SDS011;61379;59.732;30.468;2023-07-28T12:24:21;9.70;;;8.80;;
73168;SDS011;61379;59.732;30.468;2023-07-28T12:26:48;9.77;;;9.15;;
73168;SDS011;61379;59.732;30.468;2023-07-28T12:29:18;10.02;;;9.18;;
73168;SDS011;61379;59.732;30.468;2023-07-28T12:31:45;10.82;;;9.98;;
73168;SDS011;61379;59.732;30.468;2023-07-28T12:34:11;11.60;;;8.85;;
73168;SDS011;61379;59.732;30.468;2023-07-28T12:36:38;11.63;;;9.35;;
73168;SDS011;61379;59.732;30.468;2023-07-28T12:39:05;10.05;;;9.13;;
73168;SDS011;61379;59.732;30.468;2023-07-28T12:41:33;10.02;;;9.10;;
73168;SDS011;61379;59.732;30.468;2023-07-28T12:43:59;12.52;;;9.50;;
73168;SDS011;61379;59.732;30.468;2023-07-28T12:46:27;9.73;;;8.95;;
73168;SDS011;61379;59.732;30.468;2023-07-28T12:48:55;10.60;;;9.90;;
73168;SDS011;61379;59.732;30.468;2023-07-28T12:51:21;10.68;;;9.65;;
73168;SDS011;61379;59.732;30.468;2023-07-28T12:53:48;9.57;;;8.70;;
73168;SDS011;61379;59.732;30.468;2023-07-28T12:56:15;12.18;;;11.25;;
73168;SDS011;61379;59.732;30.468;2023-07-28T12:58:42;10.48;;;9.77;;
73168;SDS011;61379;59.732;30.468;2023-07-28T13:01:09;11.75;;;10.95;;
73168;SDS011;61379;59.732;30.468;2023-07-28T13:03:38;11.18;;;10.45;;
73168;SDS011;61379;59.732;30.468;2023-07-28T13:06:05;11.23;;;10.32;;
73168;SDS011;61379;59.732;30.468;2023-07-28T13:08:32;12.38;;;11.48;;
73168;SDS011;61379;59.732;30.468;2023-07-28T13:10:58;10.52;;;9.93;;
73168;SDS011;61379;59.732;30.468;2023-07-28T13:13:25;11.10;;;10.30;;
73168;SDS011;61379;59.732;30.468;2023-07-28T13:15:54;10.20;;;9.60;;
73168;SDS011;61379;59.732;30.468;2023-07-28T13:18:20;10.50;;;9.80;;
73168;SDS011;61379;59.732;30.468;2023-07-28T13:20:48;11.18;;;10.35;;
73168;SDS011;61379;59.732;30.468;2023-07-28T13:23:15;11.35;;;10.10;;
73168;SDS011;61379;59.732;30.468;2023-07-28T13:25:42;10.57;;;9.82;;
73168;SDS011;61379;59.732;30.468;2023-07-28T13:28:09;10.45;;;9.80;;
73168;SDS011;61379;59.732;30.468;2023-07-28T13:30:35;10.77;;;10.07;;
73168;SDS011;61379;59.732;30.468;2023-07-28T13:33:02;10.65;;;9.90;;
73168;SDS011;61379;59.732;30.468;2023-07-28T13:35:30;10.07;;;9.38;;
73168;SDS011;61379;59.732;30.468;2023-07-28T13:37:58;9.98;;;9.35;;
73168;SDS011;61379;59.732;30.468;2023-07-28T13:40:25;10.73;;;9.93;;
73168;SDS011;61379;59.732;30.468;2023-07-28T13:42:52;10.68;;;9.95;;
73168;SDS011;61379;59.732;30.468;2023-07-28T13:45:19;10.82;;;9.85;;
73168;SDS011;61379;59.732;30.468;2023-07-28T13:47:46;10.50;;;9.70;;
73168;SDS011;61379;59.732;30.468;2023-07-28T13:50:13;11.25;;;10.35;;
73168;SDS011;61379;59.732;30.468;2023-07-28T13:52:39;10.65;;;9.95;;
73168;SDS011;61379;59.732;30.468;2023-07-28T13:55:08;11.40;;;10.55;;
73168;SDS011;61379;59.732;30.468;2023-07-28T13:57:34;11.10;;;10.40;;
73168;SDS011;61379;59.732;30.468;2023-07-28T14:00:01;11.80;;;10.88;;
73168;SDS011;61379;59.732;30.468;2023-07-28T14:02:31;10.70;;;10.00;;
73168;SDS011;61379;59.732;30.468;2023-07-28T14:04:57;11.02;;;10.23;;
73168;SDS011;61379;59.732;30.468;2023-07-28T14:07:24;10.32;;;9.65;;
73168;SDS011;61379;59.732;30.468;2023-07-28T14:09:51;12.13;;;11.30;;
73168;SDS011;61379;59.732;30.468;2023-07-28T14:12:19;11.57;;;10.77;;
73168;SDS011;61379;59.732;30.468;2023-07-28T14:14:46;11.30;;;9.65;;
73168;SDS011;61379;59.732;30.468;2023-07-28T14:17:12;10.70;;;9.77;;
73168;SDS011;61379;59.732;30.468;2023-07-28T14:19:39;10.73;;;9.98;;
73168;SDS011;61379;59.732;30.468;2023-07-28T14:22:06;10.95;;;9.90;;
73168;SDS011;61379;59.732;30.468;2023-07-28T14:24:33;12.68;;;9.90;;
73168;SDS011;61379;59.732;30.468;2023-07-28T14:26:59;11.07;;;10.05;;